createdAt,value
2023-05-07T00:00:09.416Z,17.73
2023-05-07T00:02:38.261Z,17.73
2023-05-07T00:05:06.147Z,17.73
2023-05-07T00:07:33.271Z,17.73
2023-05-07T00:10:00.210Z,17.73
2023-05-07T00:12:27.189Z,17.73
2023-05-07T00:14:54.192Z,17.73
2023-05-07T00:17:21.184Z,17.75
2023-05-07T00:19:48.602Z,17.73
2023-05-07T00:22:15.603Z,17.74
2023-05-07T00:24:42.838Z,17.73
2023-05-07T00:27:09.868Z,17.71
2023-05-07T00:29:37.613Z,17.69
2023-05-07T00:32:04.939Z,17.69
2023-05-07T00:34:32.162Z,17.68
2023-05-07T00:36:59.140Z,17.66
2023-05-07T00:39:26.295Z,17.64
2023-05-07T00:41:53.431Z,17.62
2023-05-07T00:44:20.447Z,17.61
2023-05-07T00:46:50.765Z,17.59
2023-05-07T00:49:19.217Z,17.57
2023-05-07T00:51:46.770Z,17.55
2023-05-07T00:54:14.956Z,17.52
2023-05-07T00:56:42.262Z,17.51
2023-05-07T00:59:09.436Z,17.49
2023-05-07T01:01:37.824Z,17.47
2023-05-07T01:04:04.828Z,17.44
2023-05-07T01:06:34.041Z,17.42
2023-05-07T01:09:02.806Z,17.39
2023-05-07T01:11:29.731Z,17.38
2023-05-07T01:13:59.599Z,17.35
2023-05-07T01:16:27.791Z,17.33
2023-05-07T01:18:54.780Z,17.30
2023-05-07T01:21:27.500Z,17.28
2023-05-07T01:23:58.630Z,17.26
2023-05-07T01:26:26.193Z,17.24
2023-05-07T01:28:53.264Z,17.23
2023-05-07T01:31:21.449Z,17.20
2023-05-07T01:33:50.947Z,17.17
2023-05-07T01:36:19.459Z,17.16
2023-05-07T01:38:47.042Z,17.13
2023-05-07T01:41:14.154Z,17.11
2023-05-07T01:43:43.383Z,17.07
2023-05-07T01:46:11.582Z,17.04
2023-05-07T01:48:39.459Z,17.02
2023-05-07T01:51:07.344Z,17.00
2023-05-07T01:53:41.488Z,16.98
2023-05-07T01:56:08.831Z,16.97
2023-05-07T01:58:38.371Z,16.94
2023-05-07T02:01:05.360Z,16.92
2023-05-07T02:03:32.749Z,16.89
2023-05-07T02:06:08.150Z,16.88
2023-05-07T02:08:38.196Z,16.85
2023-05-07T02:11:05.276Z,16.83
2023-05-07T02:13:35.472Z,16.82
2023-05-07T02:16:03.500Z,16.80
2023-05-07T02:18:30.694Z,16.78
2023-05-07T02:20:57.654Z,16.78
2023-05-07T02:23:24.664Z,16.76
2023-05-07T02:25:52.370Z,16.75
2023-05-07T02:28:19.477Z,16.74
2023-05-07T02:30:51.600Z,16.73
2023-05-07T02:33:19.012Z,16.71
2023-05-07T02:35:46.266Z,16.71
2023-05-07T02:38:15.342Z,16.70
2023-05-07T02:40:42.534Z,16.69
2023-05-07T02:43:09.975Z,16.67
2023-05-07T02:45:38.505Z,16.67
2023-05-07T02:48:07.432Z,16.66
2023-05-07T02:50:34.556Z,16.65
2023-05-07T02:53:01.682Z,16.65
2023-05-07T02:55:29.078Z,16.64
2023-05-07T02:57:56.103Z,16.63
2023-05-07T03:00:23.755Z,16.61
2023-05-07T03:03:03.438Z,16.61
2023-05-07T03:05:30.391Z,16.61
2023-05-07T03:07:57.352Z,16.60
2023-05-07T03:10:24.509Z,16.60
2023-05-07T03:12:51.750Z,16.60
2023-05-07T03:15:19.062Z,16.60
2023-05-07T03:17:46.079Z,16.59
2023-05-07T03:20:14.256Z,16.56
2023-05-07T03:22:42.238Z,16.56
2023-05-07T03:25:10.349Z,16.55
2023-05-07T03:27:37.512Z,16.55
2023-05-07T03:30:05.557Z,16.52
2023-05-07T03:32:32.643Z,16.51
2023-05-07T03:34:59.712Z,16.50
2023-05-07T03:37:26.933Z,16.47
2023-05-07T03:39:54.341Z,16.46
2023-05-07T03:42:21.542Z,16.45
2023-05-07T03:44:51.379Z,16.42
2023-05-07T03:47:18.816Z,16.41
2023-05-07T03:49:47.075Z,16.41
2023-05-07T03:52:15.717Z,16.39
2023-05-07T03:54:42.695Z,16.37
2023-05-07T03:57:11.905Z,16.34
2023-05-07T03:59:39.064Z,16.32
2023-05-07T04:02:08.434Z,16.31
2023-05-07T04:04:35.454Z,16.29
2023-05-07T04:07:02.452Z,16.28
2023-05-07T04:09:30.766Z,16.25
2023-05-07T04:11:58.352Z,16.24
2023-05-07T04:14:25.496Z,16.22
2023-05-07T04:16:53.138Z,16.20
2023-05-07T04:19:20.308Z,16.19
2023-05-07T04:21:50.572Z,16.18
2023-05-07T04:24:17.599Z,16.18
2023-05-07T04:26:44.975Z,16.17
2023-05-07T04:29:12.481Z,16.17
2023-05-07T04:31:39.560Z,16.17
2023-05-07T04:34:06.539Z,16.16
2023-05-07T04:36:34.728Z,16.17
2023-05-07T04:39:05.891Z,16.18
2023-05-07T04:41:34.151Z,16.19
2023-05-07T04:44:01.535Z,16.21
2023-05-07T04:46:31.925Z,16.22
2023-05-07T04:48:59.074Z,16.24
2023-05-07T04:51:26.523Z,16.26
2023-05-07T04:53:53.755Z,16.28
2023-05-07T04:56:21.532Z,16.30
2023-05-07T04:58:48.822Z,16.32
2023-05-07T05:01:18.835Z,16.33
2023-05-07T05:03:45.867Z,16.34
2023-05-07T05:06:12.923Z,16.37
2023-05-07T05:08:39.891Z,16.39
2023-05-07T05:11:06.966Z,16.40
2023-05-07T05:13:35.913Z,16.41
2023-05-07T05:16:09.923Z,16.43
2023-05-07T05:18:37.130Z,16.44
2023-05-07T05:21:04.283Z,16.47
2023-05-07T05:23:32.195Z,16.48
2023-05-07T05:25:59.964Z,16.51
2023-05-07T05:28:30.029Z,16.52
2023-05-07T05:30:57.566Z,16.55
2023-05-07T05:33:26.611Z,16.56
2023-05-07T05:35:55.540Z,16.59
2023-05-07T05:38:33.408Z,16.60
2023-05-07T05:41:00.972Z,16.63
2023-05-07T05:43:29.969Z,16.65
2023-05-07T05:45:58.018Z,16.69
2023-05-07T05:48:25.079Z,16.71
2023-05-07T05:50:52.469Z,16.72
2023-05-07T05:53:19.770Z,16.76
2023-05-07T05:55:47.156Z,16.79
2023-05-07T05:58:14.182Z,16.83
2023-05-07T06:00:47.180Z,16.88
2023-05-07T06:03:14.650Z,16.93
2023-05-07T06:05:42.835Z,16.98
2023-05-07T06:08:10.851Z,17.04
2023-05-07T06:10:38.681Z,17.11
2023-05-07T06:13:08.662Z,17.14
2023-05-07T06:15:37.920Z,17.21
2023-05-07T06:18:10.028Z,17.26
2023-05-07T06:20:37.284Z,17.30
2023-05-07T06:23:07.196Z,17.37
2023-05-07T06:25:35.287Z,17.43
2023-05-07T06:28:07.093Z,17.46
2023-05-07T06:30:39.660Z,17.52
2023-05-07T06:33:10.870Z,17.58
2023-05-07T06:35:37.993Z,17.61
2023-05-07T06:38:05.056Z,17.68
2023-05-07T06:40:32.740Z,17.70
2023-05-07T06:43:00.969Z,17.77
2023-05-07T06:45:41.606Z,17.83
2023-05-07T06:48:10.665Z,17.85
2023-05-07T06:50:47.295Z,17.94
2023-05-07T06:53:14.416Z,18.01
2023-05-07T06:55:42.612Z,18.08
2023-05-07T06:58:10.430Z,18.14
2023-05-07T07:00:38.061Z,18.19
2023-05-07T07:03:05.951Z,18.22
2023-05-07T07:05:33.566Z,18.27
2023-05-07T07:08:03.038Z,18.28
2023-05-07T07:10:30.043Z,18.34
2023-05-07T07:12:57.726Z,18.36
2023-05-07T07:15:26.035Z,18.41
2023-05-07T07:17:54.370Z,18.47
2023-05-07T07:20:23.095Z,18.54
2023-05-07T07:22:50.106Z,18.61
2023-05-07T07:25:18.039Z,18.72
2023-05-07T07:27:45.394Z,18.81
2023-05-07T07:30:14.195Z,18.90
2023-05-07T07:32:44.162Z,19.02
2023-05-07T07:35:11.301Z,19.10
2023-05-07T07:37:39.519Z,19.19
2023-05-07T07:40:07.704Z,19.27
2023-05-07T07:42:35.330Z,19.36
2023-05-07T07:45:03.687Z,19.46
2023-05-07T07:47:34.224Z,19.53
2023-05-07T07:50:01.285Z,19.61
2023-05-07T07:52:29.168Z,19.76
2023-05-07T07:54:56.271Z,19.89
2023-05-07T07:57:23.597Z,19.99
2023-05-07T07:59:51.307Z,20.09
2023-05-07T08:02:19.211Z,20.20
2023-05-07T08:04:47.067Z,20.34
2023-05-07T08:07:14.571Z,20.50
2023-05-07T08:09:44.056Z,20.65
2023-05-07T08:12:11.834Z,20.77
2023-05-07T08:14:40.097Z,20.86
2023-05-07T08:17:10.784Z,20.95
2023-05-07T08:19:38.491Z,21.06
2023-05-07T08:22:07.946Z,21.18
2023-05-07T08:24:35.792Z,21.31
2023-05-07T08:27:14.812Z,21.44
2023-05-07T08:29:48.295Z,21.60
2023-05-07T08:32:16.627Z,21.77
2023-05-07T08:34:43.931Z,21.98
2023-05-07T08:37:11.232Z,22.19
2023-05-07T08:39:38.223Z,22.37
2023-05-07T08:42:12.261Z,22.51
2023-05-07T08:44:40.699Z,22.66
2023-05-07T08:47:08.524Z,22.78
2023-05-07T08:49:37.655Z,22.94
2023-05-07T08:52:09.320Z,23.09
2023-05-07T08:54:39.017Z,23.24
2023-05-07T08:57:07.681Z,23.36
2023-05-07T08:59:36.758Z,23.42
2023-05-07T09:02:10.156Z,23.51
2023-05-07T09:04:37.400Z,23.58
2023-05-07T09:07:06.323Z,23.65
2023-05-07T09:09:36.718Z,23.72
2023-05-07T09:12:05.485Z,23.78
2023-05-07T09:14:34.513Z,23.89
2023-05-07T09:17:02.923Z,24.00
2023-05-07T09:19:31.411Z,24.12
2023-05-07T09:22:04.464Z,24.22
2023-05-07T09:24:40.103Z,24.38
2023-05-07T09:27:14.196Z,24.55
2023-05-07T09:29:42.674Z,24.66
2023-05-07T09:32:11.561Z,24.71
2023-05-07T09:34:39.077Z,24.77
2023-05-07T09:37:08.444Z,24.82
2023-05-07T09:39:48.167Z,24.93
2023-05-07T09:42:23.607Z,25.01
2023-05-07T09:44:52.174Z,25.07
2023-05-07T09:47:25.776Z,25.14
2023-05-07T09:50:00.861Z,25.17
2023-05-07T09:52:34.193Z,25.21
2023-05-07T09:55:04.616Z,25.29
2023-05-07T09:57:34.806Z,25.35
2023-05-07T10:00:06.560Z,25.43
2023-05-07T10:02:52.906Z,25.49
2023-05-07T10:05:27.036Z,25.61
2023-05-07T10:07:58.256Z,25.70
2023-05-07T10:10:27.023Z,25.82
2023-05-07T10:12:55.530Z,25.90
2023-05-07T10:15:30.293Z,25.94
2023-05-07T10:17:59.015Z,26.00
2023-05-07T10:20:28.040Z,26.11
2023-05-07T10:22:58.925Z,26.28
2023-05-07T10:25:34.148Z,26.33
2023-05-07T10:28:11.831Z,26.48
2023-05-07T10:31:17.368Z,26.68
2023-05-07T10:33:49.749Z,26.83
2023-05-07T10:36:19.654Z,27.03
2023-05-07T10:38:47.560Z,27.26
2023-05-07T10:41:16.235Z,27.45
2023-05-07T10:43:46.269Z,27.70
2023-05-07T10:46:24.347Z,28.01
2023-05-07T10:49:09.178Z,28.27
2023-05-07T10:51:47.940Z,28.73
2023-05-07T10:54:23.125Z,29.29
2023-05-07T10:57:34.702Z,30.04
2023-05-07T11:00:38.572Z,30.63
2023-05-07T11:03:09.186Z,31.18
2023-05-07T11:06:10.004Z,31.89
2023-05-07T11:08:53.488Z,32.42
2023-05-07T11:11:51.979Z,32.79
2023-05-07T11:14:43.402Z,33.15
2023-05-07T11:17:14.334Z,33.50
2023-05-07T11:19:56.748Z,33.80
2023-05-07T11:22:32.489Z,34.00
2023-05-07T11:25:28.972Z,34.30
2023-05-07T11:28:22.153Z,34.58
2023-05-07T11:31:02.690Z,34.53
2023-05-07T11:33:31.769Z,34.66
2023-05-07T11:36:03.614Z,34.90
2023-05-07T11:38:37.832Z,35.20
2023-05-07T11:41:06.162Z,35.33
2023-05-07T11:43:34.418Z,35.48
2023-05-07T11:46:11.084Z,35.46
2023-05-07T11:48:39.084Z,35.49
2023-05-07T11:51:09.994Z,35.52
2023-05-07T11:53:46.731Z,35.59
2023-05-07T11:56:18.607Z,35.78
2023-05-07T11:58:47.792Z,36.01
2023-05-07T12:01:16.628Z,36.00
2023-05-07T12:03:47.058Z,36.25
2023-05-07T12:06:17.242Z,36.38
2023-05-07T12:08:47.938Z,36.46
2023-05-07T12:11:23.068Z,36.55
2023-05-07T12:13:50.244Z,36.73
2023-05-07T12:16:17.526Z,36.94
2023-05-07T12:18:45.823Z,36.88
2023-05-07T12:21:13.491Z,37.10
2023-05-07T12:23:41.269Z,37.18
2023-05-07T12:26:09.111Z,37.36
2023-05-07T12:28:40.190Z,37.49
2023-05-07T12:31:08.737Z,37.70
2023-05-07T12:33:37.046Z,37.84
2023-05-07T12:36:08.418Z,37.91
2023-05-07T12:38:42.115Z,38.06
2023-05-07T12:41:11.549Z,38.11
2023-05-07T12:43:39.271Z,38.30
2023-05-07T12:46:08.899Z,38.47
2023-05-07T12:48:39.767Z,38.72
2023-05-07T12:51:08.750Z,38.68
2023-05-07T12:53:43.112Z,38.74
2023-05-07T12:56:10.558Z,38.70
2023-05-07T12:58:37.794Z,38.69
2023-05-07T13:01:07.897Z,38.48
2023-05-07T13:03:37.339Z,37.78
2023-05-07T13:06:16.069Z,37.05
2023-05-07T13:08:46.255Z,36.45
2023-05-07T13:11:14.343Z,35.63
2023-05-07T13:13:42.438Z,35.12
2023-05-07T13:16:12.302Z,34.61
2023-05-07T13:18:41.707Z,34.05
2023-05-07T13:21:09.045Z,33.46
2023-05-07T13:23:36.360Z,33.10
2023-05-07T13:26:08.504Z,32.74
2023-05-07T13:28:36.002Z,32.51
2023-05-07T13:31:04.006Z,32.12
2023-05-07T13:33:32.034Z,31.84
2023-05-07T13:36:01.443Z,31.64
2023-05-07T13:38:28.491Z,31.50
2023-05-07T13:40:55.556Z,31.37
2023-05-07T13:43:22.509Z,31.19
2023-05-07T13:45:49.498Z,31.03
2023-05-07T13:48:16.529Z,30.86
2023-05-07T13:50:43.501Z,30.77
2023-05-07T13:53:10.654Z,30.65
2023-05-07T13:55:37.628Z,30.52
2023-05-07T13:58:07.039Z,30.33
2023-05-07T14:00:34.476Z,30.11
2023-05-07T14:03:02.084Z,29.93
2023-05-07T14:05:29.260Z,29.68
2023-05-07T14:07:58.091Z,29.46
2023-05-07T14:10:25.462Z,29.24
2023-05-07T14:12:53.643Z,29.02
2023-05-07T14:15:21.700Z,28.26
2023-05-07T14:17:48.634Z,27.51
2023-05-07T14:20:15.710Z,26.45
2023-05-07T14:22:42.763Z,25.22
2023-05-07T14:25:13.890Z,24.34
2023-05-07T14:27:41.507Z,23.58
2023-05-07T14:30:09.372Z,22.79
2023-05-07T14:32:36.849Z,22.03
2023-05-07T14:35:04.087Z,21.42
2023-05-07T14:37:31.755Z,21.04
2023-05-07T14:40:01.106Z,20.64
2023-05-07T14:42:28.114Z,20.16
2023-05-07T14:44:55.180Z,19.77
2023-05-07T14:47:22.161Z,19.42
2023-05-07T14:49:49.120Z,18.92
2023-05-07T14:52:16.286Z,18.69
2023-05-07T14:54:43.261Z,18.28
2023-05-07T14:57:14.162Z,17.93
2023-05-07T14:59:43.767Z,17.85
2023-05-07T15:02:12.805Z,17.62
2023-05-07T15:04:46.469Z,17.52
2023-05-07T15:07:18.365Z,17.31
2023-05-07T15:09:45.970Z,17.27
2023-05-07T15:12:13.992Z,17.16
2023-05-07T15:14:43.313Z,17.14
2023-05-07T15:17:10.287Z,17.07
2023-05-07T15:19:37.656Z,17.07
2023-05-07T15:22:04.825Z,16.95
2023-05-07T15:24:32.225Z,17.02
2023-05-07T15:26:59.332Z,17.03
2023-05-07T15:29:26.352Z,16.99
2023-05-07T15:31:53.418Z,16.99
2023-05-07T15:34:21.905Z,16.98
2023-05-07T15:36:48.935Z,16.95
2023-05-07T15:39:15.989Z,16.91
2023-05-07T15:41:43.125Z,16.88
2023-05-07T15:44:10.844Z,16.85
2023-05-07T15:46:37.828Z,16.82
2023-05-07T15:49:08.340Z,16.82
2023-05-07T15:51:36.471Z,16.81
2023-05-07T15:54:03.682Z,16.81
2023-05-07T15:56:33.651Z,16.80
2023-05-07T15:59:00.736Z,16.80
2023-05-07T16:01:28.112Z,16.79
2023-05-07T16:03:55.396Z,16.79
2023-05-07T16:06:22.776Z,16.79
2023-05-07T16:08:49.917Z,16.78
2023-05-07T16:11:17.022Z,16.78
2023-05-07T16:13:44.045Z,16.77
2023-05-07T16:16:11.038Z,16.75
2023-05-07T16:18:38.091Z,16.73
2023-05-07T16:21:06.570Z,16.71
2023-05-07T16:23:33.557Z,16.69
2023-05-07T16:26:00.536Z,16.69
2023-05-07T16:28:27.488Z,16.68
2023-05-07T16:30:54.448Z,16.69
2023-05-07T16:33:21.418Z,16.65
2023-05-07T16:35:52.858Z,16.63
2023-05-07T16:38:19.923Z,16.60
2023-05-07T16:40:46.890Z,16.59
2023-05-07T16:43:13.875Z,16.56
2023-05-07T16:45:41.113Z,16.52
2023-05-07T16:48:08.410Z,16.48
2023-05-07T16:50:35.924Z,16.42
2023-05-07T16:53:03.015Z,16.40
2023-05-07T16:55:36.208Z,16.38
2023-05-07T16:58:10.954Z,16.37
2023-05-07T17:00:49.869Z,16.31
2023-05-07T17:03:17.723Z,16.29
2023-05-07T17:05:45.239Z,16.29
2023-05-07T17:08:13.635Z,16.27
2023-05-07T17:10:41.400Z,16.27
2023-05-07T17:13:08.509Z,16.26
2023-05-07T17:15:35.601Z,16.26
2023-05-07T17:18:02.670Z,16.26
2023-05-07T17:20:29.642Z,16.26
2023-05-07T17:22:56.720Z,16.26
2023-05-07T17:25:23.775Z,16.25
2023-05-07T17:27:50.910Z,16.27
2023-05-07T17:30:18.421Z,16.25
2023-05-07T17:32:45.425Z,16.26
2023-05-07T17:35:12.348Z,16.26
2023-05-07T17:37:39.354Z,16.25
2023-05-07T17:40:07.611Z,16.24
2023-05-07T17:42:34.564Z,16.23
2023-05-07T17:45:01.531Z,16.22
2023-05-07T17:47:28.797Z,16.20
2023-05-07T17:49:55.998Z,16.20
2023-05-07T17:52:24.027Z,16.17
2023-05-07T17:54:50.972Z,16.16
2023-05-07T17:57:17.904Z,16.15
2023-05-07T17:59:44.865Z,16.13
2023-05-07T18:02:11.915Z,16.11
2023-05-07T18:04:38.894Z,16.09
2023-05-07T18:07:05.919Z,16.07
2023-05-07T18:09:33.534Z,16.05
2023-05-07T18:12:01.009Z,16.04
2023-05-07T18:14:28.210Z,16.04
2023-05-07T18:16:55.416Z,16.01
2023-05-07T18:19:22.438Z,15.99
2023-05-07T18:21:49.652Z,15.98
2023-05-07T18:24:16.639Z,15.97
2023-05-07T18:26:43.562Z,15.95
2023-05-07T18:29:10.784Z,15.93
2023-05-07T18:31:38.215Z,15.91
2023-05-07T18:34:06.436Z,15.89
2023-05-07T18:36:33.579Z,15.87
2023-05-07T18:39:01.309Z,15.85
2023-05-07T18:41:28.430Z,15.84
2023-05-07T18:43:55.752Z,15.81
2023-05-07T18:46:22.741Z,15.80
2023-05-07T18:48:49.748Z,15.78
2023-05-07T18:51:16.686Z,15.76
2023-05-07T18:53:43.603Z,15.74
2023-05-07T18:56:10.586Z,15.73
2023-05-07T18:58:37.793Z,15.71
2023-05-07T19:01:08.582Z,15.72
2023-05-07T19:03:35.992Z,15.72
2023-05-07T19:06:04.186Z,15.74
2023-05-07T19:08:31.171Z,15.73
2023-05-07T19:10:58.637Z,15.74
2023-05-07T19:13:26.049Z,15.75
2023-05-07T19:15:53.938Z,15.73
2023-05-07T19:18:21.145Z,15.72
2023-05-07T19:20:50.236Z,15.73
2023-05-07T19:23:19.147Z,15.72
2023-05-07T19:25:47.449Z,15.70
2023-05-07T19:28:14.413Z,15.70
2023-05-07T19:30:41.382Z,15.69
2023-05-07T19:33:08.506Z,15.70
2023-05-07T19:35:35.665Z,15.69
2023-05-07T19:38:03.463Z,15.69
2023-05-07T19:40:30.447Z,15.69
2023-05-07T19:42:57.414Z,15.67
2023-05-07T19:45:24.344Z,15.67
2023-05-07T19:47:51.376Z,15.66
2023-05-07T19:50:18.681Z,15.67
2023-05-07T19:52:45.790Z,15.66
2023-05-07T19:55:12.957Z,15.68
2023-05-07T19:57:40.362Z,15.67
2023-05-07T20:00:08.220Z,15.68
2023-05-07T20:02:40.104Z,15.69
2023-05-07T20:05:07.642Z,15.69
2023-05-07T20:07:37.614Z,15.70
2023-05-07T20:10:05.132Z,15.71
2023-05-07T20:12:32.104Z,15.72
2023-05-07T20:15:01.495Z,15.73
2023-05-07T20:17:28.573Z,15.72
2023-05-07T20:19:56.107Z,15.70
2023-05-07T20:22:23.753Z,15.69
2023-05-07T20:24:50.787Z,15.68
2023-05-07T20:27:22.084Z,15.66
2023-05-07T20:29:49.409Z,15.63
2023-05-07T20:32:17.106Z,15.62
2023-05-07T20:34:47.500Z,15.60
2023-05-07T20:37:15.671Z,15.58
2023-05-07T20:39:42.900Z,15.56
2023-05-07T20:42:10.140Z,15.54
2023-05-07T20:44:37.106Z,15.52
2023-05-07T20:47:04.375Z,15.52
2023-05-07T20:49:31.653Z,15.51
2023-05-07T20:51:58.678Z,15.50
2023-05-07T20:54:28.016Z,15.49
2023-05-07T20:56:56.849Z,15.49
2023-05-07T20:59:24.136Z,15.49
2023-05-07T21:01:51.466Z,15.50
2023-05-07T21:04:18.514Z,15.50
2023-05-07T21:06:45.530Z,15.51
2023-05-07T21:09:12.503Z,15.51
2023-05-07T21:11:39.575Z,15.50
2023-05-07T21:14:06.505Z,15.51
2023-05-07T21:16:33.487Z,15.50
2023-05-07T21:19:00.752Z,15.49
2023-05-07T21:21:28.067Z,15.49
2023-05-07T21:23:55.280Z,15.49
2023-05-07T21:26:22.738Z,15.48
2023-05-07T21:28:50.453Z,15.48
2023-05-07T21:31:18.142Z,15.48
2023-05-07T21:33:45.416Z,15.47
2023-05-07T21:36:12.523Z,15.47
2023-05-07T21:38:40.360Z,15.48
2023-05-07T21:41:07.529Z,15.47
2023-05-07T21:43:34.501Z,15.46
2023-05-07T21:46:03.646Z,15.44
2023-05-07T21:48:30.699Z,15.43
2023-05-07T21:51:06.263Z,15.40
2023-05-07T21:53:34.936Z,15.40
2023-05-07T21:56:05.187Z,15.36
2023-05-07T21:58:32.513Z,15.34
2023-05-07T22:01:01.304Z,15.34
2023-05-07T22:03:28.377Z,15.33
2023-05-07T22:05:55.675Z,15.30
2023-05-07T22:08:22.698Z,15.30
2023-05-07T22:10:49.682Z,15.29
2023-05-07T22:13:16.781Z,15.27
2023-05-07T22:15:53.704Z,15.25
2023-05-07T22:18:24.612Z,15.22
2023-05-07T22:20:52.156Z,15.22
2023-05-07T22:23:19.126Z,15.21
2023-05-07T22:25:46.106Z,15.18
2023-05-07T22:28:13.218Z,15.18
2023-05-07T22:30:40.432Z,15.18
2023-05-07T22:33:07.453Z,15.18
2023-05-07T22:35:34.586Z,15.16
2023-05-07T22:38:01.690Z,15.16
2023-05-07T22:40:28.629Z,15.17
2023-05-07T22:42:55.588Z,15.14
2023-05-07T22:45:22.524Z,15.15
2023-05-07T22:47:49.496Z,15.13
2023-05-07T22:50:16.575Z,15.14
2023-05-07T22:52:43.502Z,15.12
2023-05-07T22:55:10.420Z,15.13
2023-05-07T22:57:37.433Z,15.12
2023-05-07T23:00:06.167Z,15.13
2023-05-07T23:02:33.576Z,15.13
2023-05-07T23:05:01.614Z,15.11
2023-05-07T23:07:28.759Z,15.10
2023-05-07T23:09:55.698Z,15.11
2023-05-07T23:12:22.628Z,15.11
2023-05-07T23:14:50.204Z,15.09
2023-05-07T23:17:17.247Z,15.09
2023-05-07T23:19:44.358Z,15.07
2023-05-07T23:22:12.187Z,15.09
2023-05-07T23:24:39.371Z,15.08
2023-05-07T23:27:07.225Z,15.07
2023-05-07T23:29:35.152Z,15.06
2023-05-07T23:32:02.300Z,15.05
2023-05-07T23:34:29.288Z,15.03
2023-05-07T23:36:56.227Z,15.05
2023-05-07T23:39:23.167Z,15.03
2023-05-07T23:41:50.214Z,15.04
2023-05-07T23:44:17.448Z,15.03
2023-05-07T23:46:44.893Z,15.02
2023-05-07T23:49:12.020Z,15.01
2023-05-07T23:51:39.018Z,15.01
2023-05-07T23:54:06.667Z,15.01
2023-05-07T23:56:33.746Z,14.99
2023-05-07T23:59:00.879Z,14.99
